Southern Ontario METAR Reports

CYSN - St.Catharines
Updated: 02/26/2017 9:00pm
NOT Current
Mostly cloudy
Mostly cloudy
 Wind from SSW
Wind: SSW 30 km/h, Gust: 43 km/h
Temperature: 2°C
Wind Chill: -3°C
Dew Point: -5°C
Humidity: 60%
Barometer: 1017.6 hPa
Clouds: Mostly cloudy
Visibility: 24 km
Cloud details: Mostly cloudy 2591 m
2017/02/27 02:00 CYSN 270200Z 21016G23KT 15SM BKN085 02/M05 A3005 RMK AC7 LAST STFD OBS/NEXT 27 1200UTC SLP181
CYHM - Hamilton
Updated: 02/27/2017 1:00am
Light snow, Mostly cloudy
Light snow, Mostly cloudy
 Wind from WSW
Wind: WSW 30 km/h, Gust: 50 km/h
Temperature: 3°C
Wind Chill: -3°C
Dew Point: -5°C
Humidity: 56%
Barometer: 1017.3 hPa
Summary: Light Snow
Clouds: Mostly cloudy
Visibility: 24 km
Cloud details: Few Clouds 1280 m
Partly cloudy 1951 m
Mostly cloudy 2926 m
2017/02/27 06:00 CYHM 270600Z 24016G27KT 15SM -SN FEW042 SCT064 BKN096 03/M05 A3004 RMK SC1SC3AC2 SLP182
 
CYYZ - Toronto
Updated: 02/27/2017 1:02am
Few Clouds
Few Clouds
 Wind from SW
Wind: SW 17 km/h, Gust: 30 km/h
Temperature: 2°C
Wind Chill: -2°C
Dew Point: -6°C
Humidity: 56%
Barometer: 1016.3 hPa
Clouds: Few Clouds
Visibility: 24 km
Cloud details: Few Clouds 2591 m
2017/02/27 06:02 CYYZ 270602Z 23009G16KT 15SM FEW085 02/M06 A3001 RMK AC1 SLP172
CYKF - Waterloo
Updated: 02/27/2017 1:00am
Partly cloudy
Partly cloudy
 Wind from SW
Wind: SW 26 km/h, Gust: 41 km/h
Temperature: 2°C
Wind Chill: -3°C
Dew Point: -5°C
Humidity: 60%
Barometer: 1015.9 hPa
Clouds: Partly cloudy
Visibility: 14 km
Cloud details: Few Clouds 2134 m
Partly cloudy 2713 m
2017/02/27 06:00 CYKF 270600Z AUTO 22014G22KT 9SM FEW070 SCT089 02/M05 A3000 RMK SLP172
 
CYXU - London
Updated: 02/27/2017 1:00am
Partly cloudy
Partly cloudy
 Wind from SW
Wind: SW 28 km/h, Gust: 44 km/h
Temperature: 2°C
Wind Chill: -3°C
Dew Point: -5°C
Humidity: 60%
Barometer: 1017.3 hPa
Clouds: Partly cloudy
Visibility: 24 km
Cloud details: Partly cloudy 2438 m
2017/02/27 06:00 CYXU 270600Z 22015G24KT 15SM SCT080 02/M05 A3004 RMK AC4 SLP185
CYQG - Windsor
Updated: 02/27/2017 1:00am
Partly cloudy
Partly cloudy
 Wind from SW
Wind: SW 22 km/h
Temperature: 2°C
Wind Chill: -3°C
Dew Point: -5°C
Humidity: 60%
Barometer: 1018.6 hPa
Clouds: Partly cloudy
Visibility: 24 km
Cloud details: Partly cloudy 3048 m
2017/02/27 06:00 CYQG 270600Z 22012KT 15SM SCT100 02/M05 A3008 RMK AC4 SLP195
 
CYZR - Sarnia
Updated: 02/27/2017 1:00am
Mostly cloudy
Mostly cloudy
 Wind from SSW
Wind: SSW 17 km/h, Gust: 30 km/h
Temperature: 3°C
Wind Chill: -1°C
Dew Point: -6°C
Humidity: 52%
Barometer: 1017.3 hPa
Clouds: Mostly cloudy
Visibility: 14 km
Cloud details: Partly cloudy 2286 m
Mostly cloudy 2743 m
2017/02/27 06:00 CYZR 270600Z AUTO 21009G16KT 9SM SCT075 BKN090 03/M06 A3004 RMK SLP182
CYVV - Wiarton
Updated: 02/27/2017 1:00am
Overcast
Overcast
 Wind from SW
Wind: SW 30 km/h, Gust: 48 km/h
Temperature: 3°C
Wind Chill: -3°C
Dew Point: -3°C
Humidity: 65%
Barometer: 1012.9 hPa
Clouds: Overcast
Visibility: 24 km
Cloud details: Overcast 2134 m
2017/02/27 06:00 CYVV 270600Z 23016G26KT 15SM OVC070 03/M03 A2991 RMK AC8 SLP138
 
CYPQ - Peterborough
Updated: 02/27/2017 1:00am
Mostly cloudy
Mostly cloudy
 Wind from SW
Wind: SW 20 km/h, Gust: 30 km/h
Temperature: 2°C
Wind Chill: -3°C
Dew Point: -3°C
Humidity: 70%
Barometer: 1014.9 hPa
Clouds: Mostly cloudy
Visibility: 14 km
Cloud details: Mostly cloudy 3048 m
2017/02/27 06:00 CYPQ 270600Z AUTO 22011G16KT 190V270 9SM BKN100 02/M03 A2997 RMK SLP158
CYTR - Trenton
Updated: 02/27/2017 1:00am
Clear
Clear
 Wind from SW
Wind: SW 24 km/h, Gust: 33 km/h
Temperature: 3°C
Wind Chill: -2°C
Dew Point: -4°C
Humidity: 60%
Barometer: 1016.3 hPa
Clouds: Clear
Visibility: 24 km
2017/02/27 06:00 CYTR 270600Z 23013G18KT 15SM SKC 03/M04 A3001 RMK SLP166